createdAt,value
2024-01-16T00:00:00.460Z,7.30
2024-01-16T00:02:28.791Z,7.37
2024-01-16T00:04:59.421Z,7.13
2024-01-16T00:07:27.774Z,7.87
2024-01-16T00:09:57.425Z,7.47
2024-01-16T00:12:25.710Z,7.20
2024-01-16T00:14:55.085Z,8.30
2024-01-16T00:17:23.387Z,8.00
2024-01-16T00:19:51.649Z,7.57
2024-01-16T00:22:19.931Z,7.97
2024-01-16T00:24:48.146Z,8.13
2024-01-16T00:27:17.818Z,8.20
2024-01-16T00:29:46.104Z,8.10
2024-01-16T00:32:17.341Z,7.80
2024-01-16T00:34:45.874Z,7.80
2024-01-16T00:37:14.097Z,8.17
2024-01-16T00:39:42.342Z,8.60
2024-01-16T00:42:10.560Z,8.23
2024-01-16T00:44:40.234Z,8.07
2024-01-16T00:47:08.902Z,8.10
2024-01-16T00:49:38.604Z,8.67
2024-01-16T00:52:07.799Z,8.33
2024-01-16T00:54:36.039Z,8.50
2024-01-16T00:57:04.435Z,8.57
2024-01-16T00:59:32.696Z,8.30
2024-01-16T01:02:02.505Z,8.03
2024-01-16T01:04:33.172Z,8.20
2024-01-16T01:07:01.414Z,8.23
2024-01-16T01:09:29.674Z,7.43
2024-01-16T01:11:57.983Z,7.57
2024-01-16T01:14:27.115Z,7.83
2024-01-16T01:16:55.487Z,8.07
2024-01-16T01:19:25.319Z,7.50
2024-01-16T01:21:53.608Z,8.03
2024-01-16T01:24:21.836Z,8.47
2024-01-16T01:26:50.085Z,7.87
2024-01-16T01:29:18.511Z,8.17
2024-01-16T01:31:49.123Z,8.80
2024-01-16T01:34:17.881Z,8.60
2024-01-16T01:36:47.645Z,8.03
2024-01-16T01:39:16.087Z,8.37
2024-01-16T01:41:44.373Z,8.53
2024-01-16T01:44:17.190Z,7.67
2024-01-16T01:46:47.444Z,7.10
2024-01-16T01:49:17.776Z,7.70
2024-01-16T01:51:47.862Z,7.40
2024-01-16T01:54:17.577Z,7.50
2024-01-16T01:56:50.805Z,7.37
2024-01-16T01:59:20.614Z,7.20
2024-01-16T02:01:50.604Z,7.00
2024-01-16T02:04:20.013Z,6.50
2024-01-16T02:06:50.765Z,6.87
2024-01-16T02:09:19.744Z,7.50
2024-01-16T02:11:48.292Z,7.00
2024-01-16T02:14:16.645Z,7.57
2024-01-16T02:16:46.097Z,7.03
2024-01-16T02:19:14.548Z,7.30
2024-01-16T02:21:50.764Z,7.60
2024-01-16T02:24:21.650Z,7.67
2024-01-16T02:26:50.066Z,7.87
2024-01-16T02:29:18.894Z,8.03
2024-01-16T02:31:47.218Z,7.77
2024-01-16T02:34:15.761Z,7.13
2024-01-16T02:36:44.159Z,8.20
2024-01-16T02:39:12.708Z,7.00
2024-01-16T02:41:42.390Z,7.47
2024-01-16T02:44:10.710Z,7.33
2024-01-16T02:46:40.106Z,7.73
2024-01-16T02:49:08.898Z,6.90
2024-01-16T02:51:37.188Z,7.80
2024-01-16T02:54:05.886Z,7.50
2024-01-16T02:56:34.215Z,6.70
2024-01-16T02:59:03.998Z,7.00
2024-01-16T03:01:32.241Z,7.70
2024-01-16T03:04:00.525Z,8.03
2024-01-16T03:06:30.326Z,7.17
2024-01-16T03:08:58.897Z,6.87
2024-01-16T03:11:27.223Z,7.37
2024-01-16T03:13:55.508Z,7.60
2024-01-16T03:16:25.136Z,7.17
2024-01-16T03:18:53.427Z,6.87
2024-01-16T03:21:21.706Z,7.13
2024-01-16T03:23:53.162Z,6.77
2024-01-16T03:26:21.570Z,7.10
2024-01-16T03:28:50.259Z,6.40
2024-01-16T03:31:19.705Z,7.13
2024-01-16T03:33:49.460Z,7.43
2024-01-16T03:36:17.924Z,6.87
2024-01-16T03:38:46.370Z,6.87
2024-01-16T03:41:14.715Z,6.47
2024-01-16T03:43:44.080Z,7.17
2024-01-16T03:46:13.346Z,6.77
2024-01-16T03:48:41.653Z,6.50
2024-01-16T03:51:11.769Z,5.80
2024-01-16T03:53:40.052Z,6.40
2024-01-16T03:56:09.175Z,6.07
2024-01-16T03:58:37.486Z,6.60
2024-01-16T04:01:06.095Z,6.70
2024-01-16T04:03:35.262Z,6.50
2024-01-16T04:06:03.839Z,6.97
2024-01-16T04:08:36.491Z,7.27
2024-01-16T04:11:04.794Z,7.23
2024-01-16T04:13:32.997Z,7.37
2024-01-16T04:16:01.226Z,7.37
2024-01-16T04:18:29.667Z,7.43
2024-01-16T04:20:58.002Z,8.10
2024-01-16T04:23:26.270Z,7.50
2024-01-16T04:25:56.142Z,7.77
2024-01-16T04:28:24.647Z,7.30
2024-01-16T04:30:53.249Z,6.80
2024-01-16T04:33:25.748Z,7.30
2024-01-16T04:35:54.058Z,7.37
2024-01-16T04:38:22.385Z,7.27
2024-01-16T04:40:50.688Z,7.47
2024-01-16T04:43:20.267Z,7.87
2024-01-16T04:45:48.741Z,7.47
2024-01-16T04:48:17.257Z,7.87
2024-01-16T04:50:46.698Z,7.47
2024-01-16T04:53:15.098Z,7.63
2024-01-16T04:55:43.386Z,7.90
2024-01-16T04:58:11.847Z,8.03
2024-01-16T05:00:41.462Z,7.77
2024-01-16T05:03:09.720Z,7.93
2024-01-16T05:05:38.010Z,7.87
2024-01-16T05:08:06.632Z,7.20
2024-01-16T05:10:35.061Z,7.67
2024-01-16T05:13:03.286Z,7.60
2024-01-16T05:15:31.774Z,7.77
2024-01-16T05:18:01.524Z,8.27
2024-01-16T05:20:30.336Z,8.10
2024-01-16T05:22:58.595Z,8.37
2024-01-16T05:25:26.862Z,8.43
2024-01-16T05:27:55.081Z,7.83
2024-01-16T05:30:25.781Z,8.40
2024-01-16T05:33:02.125Z,7.37
2024-01-16T05:35:31.908Z,6.67
2024-01-16T05:38:01.089Z,5.77
2024-01-16T05:40:29.348Z,5.97
2024-01-16T05:42:58.213Z,5.90
2024-01-16T05:45:26.342Z,4.80
2024-01-16T05:47:54.488Z,4.13
2024-01-16T05:50:22.674Z,4.50
2024-01-16T05:52:52.436Z,3.60
2024-01-16T05:55:23.541Z,4.50
2024-01-16T05:57:51.809Z,4.50
2024-01-16T06:00:23.733Z,4.93
2024-01-16T06:02:51.844Z,4.67
2024-01-16T06:05:20.048Z,4.80
2024-01-16T06:07:48.132Z,4.53
2024-01-16T06:10:17.825Z,5.23
2024-01-16T06:12:45.885Z,6.10
2024-01-16T06:15:14.025Z,7.03
2024-01-16T06:17:42.971Z,6.93
2024-01-16T06:20:12.092Z,7.13
2024-01-16T06:22:40.175Z,7.37
2024-01-16T06:25:08.743Z,6.87
2024-01-16T06:27:38.172Z,6.33
2024-01-16T06:30:09.927Z,5.27
2024-01-16T06:32:38.329Z,5.27
2024-01-16T06:35:08.763Z,4.70
2024-01-16T06:37:37.468Z,4.23
2024-01-16T06:40:06.467Z,4.33
2024-01-16T06:42:34.558Z,4.00
2024-01-16T06:45:04.060Z,4.23
2024-01-16T06:47:32.258Z,5.10
2024-01-16T06:50:00.425Z,5.03
2024-01-16T06:52:28.530Z,4.80
2024-01-16T06:54:57.153Z,5.00
2024-01-16T06:57:25.406Z,4.97
2024-01-16T06:59:53.760Z,5.70
2024-01-16T07:02:23.456Z,4.83
2024-01-16T07:05:01.181Z,5.10
2024-01-16T07:07:29.325Z,6.20
2024-01-16T07:09:57.379Z,5.77
2024-01-16T07:12:25.431Z,5.87
2024-01-16T07:14:53.608Z,6.33
2024-01-16T07:17:23.143Z,6.60
2024-01-16T07:19:51.400Z,6.97
2024-01-16T07:22:19.474Z,7.27
2024-01-16T07:24:47.551Z,7.50
2024-01-16T07:27:15.673Z,7.03
2024-01-16T07:29:43.896Z,6.87
2024-01-16T07:32:12.495Z,6.80
2024-01-16T07:34:42.287Z,6.73
2024-01-16T07:37:10.502Z,7.27
2024-01-16T07:39:38.593Z,7.10
2024-01-16T07:42:05.923Z,6.83
2024-01-16T07:44:34.011Z,7.50
2024-01-16T07:47:02.104Z,6.20
2024-01-16T07:49:30.510Z,6.87
2024-01-16T07:51:59.924Z,6.77
2024-01-16T07:54:28.045Z,6.70
2024-01-16T07:56:56.138Z,6.47
2024-01-16T07:59:24.280Z,7.30
2024-01-16T08:01:52.381Z,7.77
2024-01-16T08:04:20.521Z,9.47
2024-01-16T08:06:48.982Z,9.07
2024-01-16T08:09:18.710Z,10.67
2024-01-16T08:11:47.054Z,9.60
2024-01-16T08:14:15.213Z,10.10
2024-01-16T08:16:43.294Z,10.63
2024-01-16T08:19:11.562Z,10.50
2024-01-16T08:21:39.692Z,10.53
2024-01-16T08:24:07.893Z,12.27
2024-01-16T08:26:37.986Z,11.53
2024-01-16T08:29:06.263Z,12.13
2024-01-16T08:31:34.396Z,11.67
2024-01-16T08:34:02.667Z,12.63
2024-01-16T08:36:30.907Z,12.50
2024-01-16T08:39:00.689Z,12.40
2024-01-16T08:41:28.834Z,12.87
2024-01-16T08:43:58.273Z,11.40
2024-01-16T08:46:26.410Z,10.67
2024-01-16T08:48:55.370Z,9.27
2024-01-16T08:51:23.470Z,9.67
2024-01-16T08:53:51.702Z,8.30
2024-01-16T08:56:19.953Z,7.73
2024-01-16T08:58:48.110Z,7.40
2024-01-16T09:01:17.724Z,7.80
2024-01-16T09:03:45.925Z,6.93
2024-01-16T09:06:14.124Z,7.00
2024-01-16T09:08:42.277Z,7.40
2024-01-16T09:11:10.612Z,7.33
2024-01-16T09:13:44.904Z,7.17
2024-01-16T09:16:13.022Z,6.30
2024-01-16T09:18:42.591Z,5.80
2024-01-16T09:21:11.009Z,5.80
2024-01-16T09:23:39.077Z,6.20
2024-01-16T09:26:07.134Z,4.93
2024-01-16T09:28:35.228Z,5.83
2024-01-16T09:31:03.374Z,5.70
2024-01-16T09:33:31.479Z,5.00
2024-01-16T09:36:01.073Z,5.53
2024-01-16T09:38:29.487Z,5.40
2024-01-16T09:41:04.074Z,5.33
2024-01-16T09:43:33.909Z,4.70
2024-01-16T09:46:03.813Z,3.83
2024-01-16T09:48:33.654Z,3.50
2024-01-16T09:51:04.239Z,3.87
2024-01-16T09:53:32.413Z,3.87
2024-01-16T09:56:04.553Z,4.00
2024-01-16T09:58:38.597Z,4.70
2024-01-16T10:01:07.498Z,5.80
2024-01-16T10:03:37.458Z,5.17
2024-01-16T10:06:10.732Z,5.00
2024-01-16T10:08:40.103Z,5.27
2024-01-16T10:11:09.429Z,5.03
2024-01-16T10:13:38.931Z,4.67
2024-01-16T10:16:07.104Z,4.27
2024-01-16T10:18:36.133Z,4.30
2024-01-16T10:21:04.744Z,4.90
2024-01-16T10:23:35.190Z,4.83
2024-01-16T10:26:10.692Z,4.90
2024-01-16T10:28:40.432Z,5.00
2024-01-16T10:31:09.666Z,4.80
2024-01-16T10:33:40.355Z,4.80
2024-01-16T10:36:13.437Z,5.17
2024-01-16T10:38:44.856Z,5.13
2024-01-16T10:41:14.237Z,5.33
2024-01-16T10:43:43.083Z,5.43
2024-01-16T10:46:13.013Z,4.77
2024-01-16T10:48:43.239Z,4.90
2024-01-16T10:51:13.635Z,5.60
2024-01-16T10:53:45.638Z,4.87
2024-01-16T10:56:14.508Z,5.03
2024-01-16T10:58:44.131Z,5.33
2024-01-16T11:01:15.316Z,5.60
2024-01-16T11:03:49.940Z,4.87
2024-01-16T11:06:20.337Z,5.03
2024-01-16T11:08:51.207Z,4.93
2024-01-16T11:11:19.649Z,5.63
2024-01-16T11:13:48.794Z,4.97
2024-01-16T11:16:17.010Z,6.00
2024-01-16T11:18:45.295Z,5.43
2024-01-16T11:21:17.805Z,6.03
2024-01-16T11:23:48.155Z,5.90
2024-01-16T11:26:33.563Z,6.17
2024-01-16T11:29:03.480Z,6.10
2024-01-16T11:31:33.090Z,6.50
2024-01-16T11:34:02.289Z,6.70
2024-01-16T11:36:55.489Z,6.33
2024-01-16T11:39:26.097Z,6.50
2024-01-16T11:41:57.568Z,6.73
2024-01-16T11:44:47.989Z,6.47
2024-01-16T11:47:21.000Z,6.23
2024-01-16T11:49:49.810Z,6.83
2024-01-16T11:52:41.869Z,6.63
2024-01-16T11:55:27.987Z,6.30
2024-01-16T11:58:23.613Z,6.43
2024-01-16T12:00:53.620Z,6.70
2024-01-16T12:03:31.749Z,6.50
2024-01-16T12:06:07.752Z,5.90
2024-01-16T12:08:37.784Z,5.27
2024-01-16T12:11:06.592Z,5.70
2024-01-16T12:13:36.219Z,5.47
2024-01-16T12:16:05.231Z,5.43
2024-01-16T12:18:40.282Z,5.67
2024-01-16T12:21:17.926Z,5.53
2024-01-16T12:23:52.746Z,5.87
2024-01-16T12:26:28.577Z,5.40
2024-01-16T12:29:00.114Z,5.77
2024-01-16T12:31:29.500Z,5.90
2024-01-16T12:34:09.009Z,6.40
2024-01-16T12:36:38.546Z,6.47
2024-01-16T12:39:06.848Z,6.50
2024-01-16T12:41:42.882Z,6.77
2024-01-16T12:44:16.945Z,6.57
2024-01-16T12:46:46.850Z,6.83
2024-01-16T12:49:15.298Z,5.30
2024-01-16T12:51:43.624Z,5.70
2024-01-16T12:54:16.390Z,5.00
2024-01-16T12:56:44.805Z,5.60
2024-01-16T12:59:15.134Z,5.70
2024-01-16T13:01:45.260Z,5.53
2024-01-16T13:04:15.152Z,4.70
2024-01-16T13:06:45.314Z,4.80
2024-01-16T13:09:18.067Z,4.37
2024-01-16T13:11:51.798Z,4.33
2024-01-16T13:14:23.264Z,4.30
2024-01-16T13:16:52.097Z,4.13
2024-01-16T13:19:20.852Z,4.60
2024-01-16T13:21:49.655Z,4.27
2024-01-16T13:24:19.001Z,3.83
2024-01-16T13:26:47.608Z,4.20
2024-01-16T13:29:16.580Z,4.37
2024-01-16T13:31:46.271Z,4.30
2024-01-16T13:34:15.632Z,4.70
2024-01-16T13:39:15.893Z,4.20
2024-01-16T13:41:45.435Z,4.37
2024-01-16T13:44:13.614Z,3.90
2024-01-16T13:46:53.976Z,4.70
2024-01-16T13:49:31.326Z,4.40
2024-01-16T13:51:59.474Z,4.10
2024-01-16T13:54:28.180Z,4.20
2024-01-16T13:57:06.115Z,4.53
2024-01-16T13:59:36.890Z,4.40
2024-01-16T14:02:06.182Z,4.80
2024-01-16T14:04:35.792Z,4.10
2024-01-16T14:07:12.239Z,4.43
2024-01-16T14:09:44.822Z,4.77
2024-01-16T14:12:14.563Z,5.10
2024-01-16T14:14:43.970Z,5.67
2024-01-16T14:17:12.367Z,5.03
2024-01-16T14:19:41.882Z,5.10
2024-01-16T14:22:10.133Z,5.40
2024-01-16T14:24:39.178Z,5.60
2024-01-16T14:27:08.168Z,4.80
2024-01-16T14:29:38.065Z,5.80
2024-01-16T14:32:06.882Z,5.40
2024-01-16T14:34:35.181Z,6.23
2024-01-16T14:37:04.841Z,5.10
2024-01-16T14:39:33.001Z,5.77
2024-01-16T14:42:01.580Z,5.63
2024-01-16T14:44:30.188Z,6.00
2024-01-16T14:46:58.351Z,7.03
2024-01-16T14:49:32.470Z,7.30
2024-01-16T14:52:02.317Z,7.60
2024-01-16T14:54:31.982Z,7.90
2024-01-16T14:57:00.249Z,8.07
2024-01-16T14:59:29.520Z,9.67
2024-01-16T15:01:57.620Z,9.13
2024-01-16T15:04:25.847Z,9.27
2024-01-16T15:06:55.219Z,10.07
2024-01-16T15:09:23.737Z,11.57
2024-01-16T15:11:54.052Z,10.83
2024-01-16T15:14:22.214Z,11.77
2024-01-16T15:16:50.391Z,13.03
2024-01-16T15:19:18.507Z,13.70
2024-01-16T15:21:46.673Z,13.17
2024-01-16T15:24:21.077Z,14.07
2024-01-16T15:26:49.220Z,15.77
2024-01-16T15:29:18.706Z,14.83
2024-01-16T15:31:47.173Z,14.30
2024-01-16T15:34:17.250Z,12.93
2024-01-16T15:36:46.081Z,12.83
2024-01-16T15:39:16.875Z,12.27
2024-01-16T15:41:45.860Z,11.87
2024-01-16T15:44:14.464Z,12.30
2024-01-16T15:47:01.252Z,12.13
2024-01-16T15:49:29.809Z,13.43
2024-01-16T15:52:00.113Z,12.87
2024-01-16T15:54:29.197Z,12.67
2024-01-16T15:56:57.474Z,12.87
2024-01-16T15:59:26.918Z,13.03
2024-01-16T16:01:55.095Z,12.43
2024-01-16T16:04:25.290Z,12.70
2024-01-16T16:06:53.448Z,12.37
2024-01-16T16:09:21.982Z,12.30
2024-01-16T16:11:50.556Z,12.70
2024-01-16T16:14:20.696Z,13.17
2024-01-16T16:16:51.390Z,13.53
2024-01-16T16:19:19.817Z,12.60
2024-01-16T16:21:51.460Z,12.77
2024-01-16T16:24:19.765Z,12.43
2024-01-16T16:26:48.071Z,11.87
2024-01-16T16:29:16.241Z,12.60
2024-01-16T16:31:44.504Z,11.97
2024-01-16T16:34:15.945Z,12.00
2024-01-16T16:36:45.076Z,11.40
2024-01-16T16:39:17.910Z,11.57
2024-01-16T16:41:47.761Z,11.63
2024-01-16T16:44:16.156Z,10.90
2024-01-16T16:46:44.260Z,12.37
2024-01-16T16:49:19.913Z,13.70
2024-01-16T16:51:48.744Z,13.60
2024-01-16T16:54:18.513Z,12.60
2024-01-16T16:56:47.370Z,13.43
2024-01-16T16:59:15.572Z,14.07
2024-01-16T17:01:43.727Z,15.30
2024-01-16T17:04:12.123Z,14.80
2024-01-16T17:06:40.761Z,14.90
2024-01-16T17:09:12.790Z,13.60
2024-01-16T17:11:42.627Z,13.97
2024-01-16T17:14:11.178Z,17.70
2024-01-16T17:16:41.241Z,16.60
2024-01-16T17:19:11.713Z,17.47
2024-01-16T17:21:40.471Z,17.70
2024-01-16T17:24:08.888Z,17.80
2024-01-16T17:26:38.344Z,18.00
2024-01-16T17:29:10.888Z,16.93
2024-01-16T17:31:39.494Z,17.57
2024-01-16T17:34:07.953Z,14.93
2024-01-16T17:36:39.999Z,14.93
2024-01-16T17:39:10.923Z,14.17
2024-01-16T17:41:40.240Z,13.00
2024-01-16T17:44:10.745Z,13.60
2024-01-16T17:46:38.798Z,13.33
2024-01-16T17:49:06.941Z,14.27
2024-01-16T17:51:35.470Z,13.80
2024-01-16T17:54:04.860Z,13.27
2024-01-16T17:56:32.947Z,14.27
2024-01-16T17:59:01.024Z,14.20
2024-01-16T18:01:30.670Z,13.40
2024-01-16T18:03:59.055Z,15.00
2024-01-16T18:06:27.577Z,15.37
2024-01-16T18:08:55.735Z,16.37
2024-01-16T18:11:24.327Z,16.93
2024-01-16T18:13:52.544Z,18.90
2024-01-16T18:16:20.619Z,18.33
2024-01-16T18:18:52.967Z,19.83
2024-01-16T18:21:30.843Z,19.43
2024-01-16T18:23:59.010Z,21.13
2024-01-16T18:26:27.173Z,22.40
2024-01-16T18:28:55.459Z,26.53
2024-01-16T18:31:23.544Z,27.63
2024-01-16T18:33:53.094Z,28.77
2024-01-16T18:36:25.980Z,27.20
2024-01-16T18:38:54.110Z,27.07
2024-01-16T18:41:22.891Z,25.90
2024-01-16T18:43:52.561Z,27.93
2024-01-16T18:46:22.746Z,29.20
2024-01-16T18:49:01.249Z,26.73
2024-01-16T18:51:29.420Z,25.73
2024-01-16T18:53:57.607Z,26.70
2024-01-16T18:56:25.732Z,25.87
2024-01-16T18:58:58.430Z,26.97
2024-01-16T19:01:29.825Z,27.20
2024-01-16T19:04:01.176Z,26.97
2024-01-16T19:06:30.346Z,26.07
2024-01-16T19:08:59.254Z,28.07
2024-01-16T19:12:00.041Z,28.63
2024-01-16T19:14:28.239Z,30.10
2024-01-16T19:16:59.689Z,32.20
2024-01-16T19:19:33.312Z,32.30
2024-01-16T19:22:10.241Z,31.67
2024-01-16T19:24:38.839Z,31.33
2024-01-16T19:27:07.142Z,30.50
2024-01-16T19:29:35.347Z,29.70
2024-01-16T19:32:03.510Z,28.77
2024-01-16T19:34:33.068Z,27.90
2024-01-16T19:37:02.615Z,29.17
2024-01-16T19:39:33.715Z,29.13
2024-01-16T19:42:03.254Z,29.30
2024-01-16T19:44:34.077Z,28.97
2024-01-16T19:47:02.173Z,28.90
2024-01-16T19:49:30.268Z,29.33
2024-01-16T19:52:10.762Z,28.13
2024-01-16T19:54:45.286Z,27.93
2024-01-16T19:57:24.676Z,28.70
2024-01-16T19:59:53.192Z,27.63
2024-01-16T20:02:23.104Z,26.00
2024-01-16T20:04:51.588Z,25.13
2024-01-16T20:07:21.176Z,25.43
2024-01-16T20:09:54.233Z,24.97
2024-01-16T20:12:32.519Z,24.83
2024-01-16T20:15:13.748Z,24.37
2024-01-16T20:17:42.189Z,24.20
2024-01-16T20:20:11.902Z,24.90
2024-01-16T20:22:44.725Z,24.03
2024-01-16T20:25:15.903Z,24.47
2024-01-16T20:27:51.256Z,24.73
2024-01-16T20:30:19.454Z,25.20
2024-01-16T20:32:52.672Z,27.40
2024-01-16T20:35:25.841Z,26.77
2024-01-16T20:37:55.315Z,27.30
2024-01-16T20:40:32.378Z,28.97
2024-01-16T20:43:03.031Z,30.10
2024-01-16T20:45:31.137Z,30.90
2024-01-16T20:47:59.963Z,30.60
2024-01-16T20:50:28.277Z,31.03
2024-01-16T20:52:57.845Z,30.00
2024-01-16T20:55:26.177Z,30.47
2024-01-16T20:58:05.741Z,27.87
2024-01-16T21:00:35.245Z,30.03
2024-01-16T21:03:10.387Z,31.77
2024-01-16T21:05:40.505Z,31.87
2024-01-16T21:08:12.371Z,32.70
2024-01-16T21:10:40.843Z,33.50
2024-01-16T21:13:10.295Z,33.43
2024-01-16T21:15:49.098Z,35.47
2024-01-16T21:18:17.595Z,33.37
2024-01-16T21:20:47.250Z,33.00
2024-01-16T21:23:16.913Z,39.43
2024-01-16T21:25:44.960Z,55.37
2024-01-16T21:28:13.053Z,52.80
2024-01-16T21:30:41.232Z,52.30
2024-01-16T21:33:09.466Z,49.77
2024-01-16T21:35:37.640Z,48.60
2024-01-16T21:38:05.942Z,47.30
2024-01-16T21:40:36.279Z,45.10
2024-01-16T21:43:04.677Z,42.70
2024-01-16T21:45:33.187Z,41.30
2024-01-16T21:48:02.625Z,38.97
2024-01-16T21:50:37.518Z,40.50
2024-01-16T21:53:06.942Z,40.33
2024-01-16T21:55:36.673Z,41.37
2024-01-16T21:58:05.021Z,38.60
2024-01-16T22:00:33.193Z,35.90
2024-01-16T22:03:01.424Z,35.90
2024-01-16T22:05:30.145Z,36.70
2024-01-16T22:07:58.575Z,37.83
2024-01-16T22:10:26.614Z,37.27
2024-01-16T22:12:56.104Z,34.67
2024-01-16T22:15:24.186Z,33.43
2024-01-16T22:17:52.312Z,32.20
2024-01-16T22:20:20.715Z,33.40
2024-01-16T22:22:48.855Z,32.77
2024-01-16T22:25:17.269Z,33.07
2024-01-16T22:27:46.190Z,31.63
2024-01-16T22:30:19.115Z,30.50
2024-01-16T22:32:47.425Z,31.57
2024-01-16T22:35:15.913Z,31.37
2024-01-16T22:37:47.994Z,31.00
2024-01-16T22:40:17.605Z,31.27
2024-01-16T22:42:45.956Z,30.90
2024-01-16T22:45:16.087Z,31.10
2024-01-16T22:47:44.485Z,32.90
2024-01-16T22:50:13.461Z,30.90
2024-01-16T22:52:41.845Z,32.67
2024-01-16T22:55:10.667Z,33.20
2024-01-16T22:57:40.762Z,31.10
2024-01-16T23:00:20.272Z,30.10
2024-01-16T23:02:52.139Z,29.67
2024-01-16T23:05:21.402Z,29.17
2024-01-16T23:07:50.724Z,29.13
2024-01-16T23:10:24.085Z,27.90
2024-01-16T23:12:52.225Z,28.63
2024-01-16T23:15:20.283Z,26.93
2024-01-16T23:17:50.088Z,27.70
2024-01-16T23:20:18.477Z,28.70
2024-01-16T23:22:46.744Z,28.27
2024-01-16T23:25:16.774Z,27.73
2024-01-16T23:27:45.691Z,26.07
2024-01-16T23:30:14.617Z,26.33
2024-01-16T23:32:43.298Z,24.37
2024-01-16T23:35:12.948Z,25.00
2024-01-16T23:37:44.456Z,26.00
2024-01-16T23:40:13.793Z,26.17
2024-01-16T23:42:42.614Z,27.77
2024-01-16T23:45:20.527Z,27.67
2024-01-16T23:47:55.900Z,27.10
2024-01-16T23:50:26.549Z,27.77
2024-01-16T23:52:55.201Z,27.10
2024-01-16T23:55:23.605Z,27.53
2024-01-16T23:57:51.851Z,27.17
